NY Terminal Aviation Weather Discussion (AFD) - Prepared: 1025 PM EDT TUE JUL 29 2014
WEAK HIGH PRESSURE REMAINS OVER THE REGION.

VFR. LIGHT AND VARIABLE WINDS OVERNIGHT...LASTING INTO WEDS MORNING. 
SEA BREEZES THEN DEVELOP IN THE AFTERNOON AND PASS THROUGH SOME 
TERMINALS. WINDS GENERALLY SW TO S 10KT OR LESS.


5 Day General Aviation Outlook:

.OUTLOOK FOR 00Z THURSDAY THROUGH SUNDAY...
.WEDS NIGHT...VFR.
.THURSDAY-FRIDAY...ISOLATED SHOWERS/TSTMS POSSIBLE IN THE 
AFTERNOON/EARLY EVENING...MAINLY WEST OF A LINE FROM KBDR TO KFRG. 
VFR OUTSIDE OF ANY SHOWERS/TSTMS.
.SATURDAY-SUNDAY...MAINLY VFR...SUB-VFR CONDITIONS POSSIBLE IN SCT 
SHOWERS.


NY Metro Terminal Aviation Weather Summary: (Explanation of Color Coding)
NOTE: All Wind Directions are TRUE (add 13 degrees for magnetic directions). Tail and Crosswind Calculations do account for the magnetic deviation of runways.

Click on the Airport Below for Specific Information at that Terminal

TAF Overview JFK TAF LGA TAF EWR TAF TEB TAF HPN TAF ISP TAF

Jump to AirSpace Impacts Section Condensed "lite" version of SPA page
**************************************************************************************
KJFK Terminal Weather: (Wind Directions Are True, Except Where Noted, ADD 13 degrees for Magnetic)

5MIN KJFK 300250Z 33007KT 10SM FEW080 BKN250 21/10 
     A2998 -30 48 700 340/07 RMK AO2 SLP151 T02110100 51013 $
5MIN KJFK 300245Z 31007KT 10SM FEW080 BKN250 22/10 
     A2998 -30 47 800 320/07 RMK AO2 SLP151 T02170100 51013 $
********************************************
****        MAGNETIC DIRECTIONS         ****
********************************************
KJFK 07/30/2014 03:05:41 GMT 330 08 KT
KJFK 07/30/2014 03:03:41 GMT 330 09 KT
KJFK 07/30/2014 03:01:41 GMT 330 09 KT
KJFK 07/30/2014 02:59:41 GMT 330 08 KT
KJFK 07/30/2014 02:57:41 GMT 330 09 KT
KJFK 07/30/2014 02:55:41 GMT 320 09 KT
KJFK 07/30/2014 02:53:41 GMT 330 09 KT
KJFK 07/30/2014 02:51:41 GMT 340 07 KT
KJFK 07/30/2014 02:49:41 GMT 330 07 KT
KJFK 07/30/2014 02:47:41 GMT 330 08 KT
SAUS70 KJFK 300300 RRE
METAR KJFK 300251Z 33008KT 10SM FEW080 BKN250 21/10 A2998 RMK AO2 SLP151
     T02110100 53013 $
FTNA35 KJFK 300239 RRC
KJFK 300231Z 3003/3106 30007KT P6SM SCT080
     FM300500 VRB04KT P6SM SCT070
     FM301600 22007KT P6SM SCT060
     FM301800 18013KT P6SM SCT060
     FM310200 23006KT P6SM SCT060
KJFK Forecaster Comments Not Available at This Time
jfk

JFK Hourly Forecast Temperature (C)

JFK Hourly TMPS
**************************************************************************************
KLGA Terminal Weather: (Wind Directions Are True, Except Where Noted, ADD 13 degrees for Magnetic)

5MIN KLGA 300250Z 34006KT 10SM CLR 21/11 A2997 -10 52 
     700 360/06 RMK AO2 SLP147 T02110111 51015
5MIN KLGA 300245Z 34006KT 10SM CLR 21/11 A2997 -10 52 
     700 350/06 RMK AO2 SLP147 T02110111 51015
********************************************
****        MAGNETIC DIRECTIONS         ****
********************************************
KLGA 07/30/2014 03:05:53 GMT 340 10 KT
KLGA 07/30/2014 03:03:53 GMT 350 09 KT
KLGA 07/30/2014 03:01:53 GMT 350 09 KT
KLGA 07/30/2014 02:59:54 GMT 350 10 KT
KLGA 07/30/2014 02:57:54 GMT 350 09 KT
KLGA 07/30/2014 02:55:53 GMT 340 09 KT
KLGA 07/30/2014 02:53:53 GMT 350 09 KT
KLGA 07/30/2014 02:51:53 GMT 360 07 KT
KLGA 07/30/2014 02:49:52 GMT 350 07 KT
KLGA 07/30/2014 02:47:54 GMT 350 08 KT
SAUS70 KLGA 300300
METAR KLGA 300251Z 34005KT 10SM FEW085 SCT250 21/11 A2997 RMK AO2 SLP147
     T02110111 53012
FTUS31 KLGA 300233 AAA
KLGA 300231Z 3003/3024 32007KT P6SM SCT080
     FM300500 VRB04KT P6SM SCT070
     FM301600 06007KT P6SM SCT060
     FM302100 18011KT P6SM SCT060
KLGA Forecaster Comments Not Available at This Time
lga


**************************************************************************************

KEWR Terminal Weather: (Wind Directions Are True, Except Where Noted, ADD 13 degrees for Magnetic)

5MIN KEWR 300300Z 31005KT 10SM FEW080 SCT250 20/11 
     A2998 -30 54 600 320/05 RMK AO2
5MIN KEWR 300255Z 32005KT 10SM FEW080 SCT250 20/11 
     A2998 -30 54 600 330/05 RMK AO2
********************************************
****        MAGNETIC DIRECTIONS         ****
********************************************
KEWR 07/30/2014 03:05:47 GMT 340 05 KT
KEWR 07/30/2014 03:03:47 GMT 340 05 KT
KEWR 07/30/2014 03:01:47 GMT 340 05 KT
KEWR 07/30/2014 02:59:47 GMT 330 06 KT
KEWR 07/30/2014 02:57:47 GMT 330 05 KT
KEWR 07/30/2014 02:55:47 GMT 340 04 KT
KEWR 07/30/2014 02:53:47 GMT 340 05 KT
KEWR 07/30/2014 02:51:47 GMT 340 04 KT
KEWR 07/30/2014 02:49:47 GMT 350 04 KT
KEWR 07/30/2014 02:47:47 GMT 340 04 KT
SAUS70 KEWR 300300
METAR KEWR 300251Z 31005KT 10SM FEW080 SCT250 20/11 A2998 RMK AO2 SLP150
     T02000106 53013
FTUS31 KEWR 300233 AAA
KEWR 300231Z 3003/3106 31007KT P6SM SCT080
     FM300500 VRB04KT P6SM SCT070
     FM301600 23008KT P6SM SCT060
     FM310100 24005KT P6SM SCT060
KEWR Forecaster Comments Not Available at This Time
ewr
Afternoon EWR Haze Potential Forecast: KEWR Haze Forecast Not Available at This Time
IS NOT AVAILABLE AT THIS TIME


******************************************************************************

KTEB Terminal Weather:
SAUS80 KTEB 300300
METAR KTEB 300251Z 00000KT 10SM CLR 21/11 A2997 RMK AO2 SLP147 T02060111
     53012
FTUS31 KTEB 300233 AAA
KTEB 300231Z 3003/3024 VRB03KT P6SM SCT070
     FM301600 23007KT P6SM SCT060
KTEB Forecaster Comments Not Available at This Time
teb

 


**************************************************************************************

KHPN Terminal Weather:
SAUS70 KHPN 300300 RRD
METAR KHPN 300256Z 30003KT 10SM CLR 17/12 A2997 RMK AO2 SLP144 T01720122
     51009
FTUS80 KHPN 300233 AAA
KHPN 300231Z 3003/3024 VRB03KT P6SM SCT070
     FM301600 21006KT P6SM SCT060
     FM302100 17006KT P6SM SCT060 AMD NOT SKED
KHPN Forecaster Comments Not Available at This Time
HPN


******************************************************************************

KISP Terminal Weather:
SAUS70 KISP 300300 RRE
METAR KISP 300256Z 00000KT 10SM BKN080 BKN250 21/12 A2995 RMK AO2 SLP141
     T02110117 51012
FTUS51 KISP 300233 AAA
KISP 300231Z 3003/3024 VRB03KT P6SM SCT070
     FM301800 21009KT P6SM SCT060
KISP Forecaster Comments Not Available at This Time
ISP

 


ZNY SWAP Season Information

(ZNY SWAP STATEMENT) (Click for PDF File) (ZNY BRIEFING) (Click for PDF File)

*******************************************************
***        NY AIR ROUTE TRAFFIC CONTROL CENTER      ***
***                DAILY SWAP STATEMENT             ***
*******************************************************
NY AIR ROUTE TRAFFIC CONTROL CENTER
DAILY SWAP STATEMENT
TUESDAY, JULY 29, 2014
SWAP IS NOT EXPECTED
ADDT'L INFO:
AZEZU-PAEPR-HANRI(L453-M201): IMPACTS ALONG M201 SOUTH OF PAEPR. 
DITCH: NO IMPACTS EXPECTED.
EAST GATES: NO IMPACTS EXPECTED. 
TOMORROW MORNINGS SWAP OUTLOOK:  SWAP IS NOT EXPECTED.

$$
KS


N90 AirSpace Impacts

N90 ZNY Gate TSTM Forecast    SWAP Day One Forecast

SWAP Day One Forecast    SWAP Day Two Outlook

National Collaborative Convective Forecast Product (CCFP) Forecasts (Mar-Oct)


Vertical Wind Profile
Untitled Document